PGR weather

Kirk Field
Paragould, Arkansas, United States

Public forecast

Using degrees Fahrenheit for public forecast. Weather courtesy of forecast.io.

METAR (pilot weather report)

Closest report is Jonesboro Municipal Airport, 15.4 nm (28.6 km) SSW. Retrieved 2019/05/23 09:53 UTC (53 minutes ago):

KJBR 230953Z AUTO 21007KT 10SM CLR 24/22 A3007 RMK AO2 SLP180 T02440217

TAF (pilot weather forecast)

Closest forecast is Jonesboro Municipal Airport, 15.4 nm (28.6 km) SSW. Retrieved 2019/05/23 06:30 UTC (4 hours ago):

TAF KJBR 230526Z 2306/2406 19007KT P6SM SCT250 FM231500 21012G18KT P6SM SCT040 SCT250 FM240200 19004KT P6SM SKC